Bitola, Macedonia
Current Conditions -  °F | °C
As of 10:00 PM on Saturday 25 Oct 2014 (Local Time) from LWOH Reporting Station
Broken Clouds Broken Clouds  
Wind Chill: 35°   Ceiling: 20000
Heat Index: 41°   Visibility: 6mi
Dew Point: 32°   Wind: 9mph
Humidity: 70%   Direction: 20°NNE
Pressure: 30.06"   Gusts: NA
Location:  41.04°N, 21.34°E
Report Text: LWOH 252000Z 02008KT 9999 SCT033 SCT110 BKN200 05/00 Q1018
Loading
Personal Weather Stations






























Interactive Weather Map New forecast layout! Learn more

10-Day Weather Forecast

Advertisements
Track Severe Weather on mobile